createdAt,value
2019-03-29T00:01:16.392Z,11.75
2019-03-29T00:03:46.175Z,12.78
2019-03-29T00:06:17.779Z,12.33
2019-03-29T00:08:49.333Z,12.43
2019-03-29T00:11:18.857Z,12.13
2019-03-29T00:13:47.981Z,12.53
2019-03-29T00:16:17.135Z,12.63
2019-03-29T00:18:46.967Z,13.90
2019-03-29T00:21:16.148Z,12.70
2019-03-29T00:23:45.256Z,14.05
2019-03-29T00:26:14.406Z,13.35
2019-03-29T00:28:43.858Z,13.90
2019-03-29T00:31:13.958Z,13.05
2019-03-29T00:33:43.418Z,13.80
2019-03-29T00:36:12.895Z,14.33
2019-03-29T00:38:42.015Z,13.43
2019-03-29T00:41:13.333Z,13.62
2019-03-29T00:43:45.601Z,14.10
2019-03-29T00:46:14.758Z,14.58
2019-03-29T00:48:43.893Z,13.38
2019-03-29T00:51:13.051Z,13.22
2019-03-29T00:53:42.521Z,14.13
2019-03-29T00:56:13.001Z,13.32
2019-03-29T00:58:45.393Z,14.30
2019-03-29T01:01:14.827Z,13.10
2019-03-29T01:03:44.248Z,13.13
2019-03-29T01:06:13.380Z,12.50
2019-03-29T01:09:01.466Z,13.38
2019-03-29T01:11:30.598Z,13.25
2019-03-29T01:13:59.694Z,13.85
2019-03-29T01:16:28.909Z,12.75
2019-03-29T01:18:58.023Z,13.40
2019-03-29T01:21:27.562Z,13.30
2019-03-29T01:23:56.656Z,13.72
2019-03-29T01:26:27.040Z,13.70
2019-03-29T01:28:56.472Z,13.62
2019-03-29T01:31:25.623Z,13.03
2019-03-29T01:33:54.784Z,14.00
2019-03-29T01:36:23.982Z,12.30
2019-03-29T01:38:53.480Z,14.13
2019-03-29T01:41:22.896Z,13.83
2019-03-29T01:43:52.389Z,13.13
2019-03-29T01:46:21.510Z,13.30
2019-03-29T01:48:50.620Z,13.38
2019-03-29T01:51:19.708Z,13.00
2019-03-29T01:53:48.826Z,12.30
2019-03-29T01:56:17.951Z,12.40
2019-03-29T01:58:48.224Z,13.30
2019-03-29T02:01:17.333Z,13.95
2019-03-29T02:03:46.486Z,13.75
2019-03-29T02:06:15.620Z,13.50
2019-03-29T02:08:45.860Z,13.22
2019-03-29T02:11:18.411Z,14.07
2019-03-29T02:13:47.528Z,14.13
2019-03-29T02:16:17.939Z,12.47
2019-03-29T02:18:47.062Z,13.22
2019-03-29T02:21:16.931Z,14.13
2019-03-29T02:23:46.370Z,14.35
2019-03-29T02:26:15.775Z,14.18
2019-03-29T02:28:45.004Z,14.40
2019-03-29T02:31:14.335Z,15.00
2019-03-29T02:33:43.467Z,15.13
2019-03-29T02:36:13.031Z,13.70
2019-03-29T02:38:54.987Z,14.10
2019-03-29T02:41:14.914Z,13.72
2019-03-29T02:43:44.352Z,14.78
2019-03-29T02:46:13.822Z,14.85
2019-03-29T02:48:46.411Z,14.78
2019-03-29T02:51:15.588Z,14.30
2019-03-29T02:53:48.097Z,15.45
2019-03-29T02:56:17.276Z,15.00
2019-03-29T02:58:47.146Z,14.87
2019-03-29T03:01:16.262Z,14.78
2019-03-29T03:03:45.744Z,15.48
2019-03-29T03:06:14.868Z,14.47
2019-03-29T03:08:43.993Z,16.45
2019-03-29T03:11:13.921Z,15.63
2019-03-29T03:13:43.050Z,13.72
2019-03-29T03:16:14.347Z,14.00
2019-03-29T03:18:43.501Z,13.65
2019-03-29T03:21:16.017Z,14.55
2019-03-29T03:23:45.167Z,15.53
2019-03-29T03:26:14.724Z,15.28
2019-03-29T03:28:43.945Z,15.20
2019-03-29T03:31:13.080Z,15.18
2019-03-29T03:33:44.666Z,14.83
2019-03-29T03:36:14.404Z,15.43
2019-03-29T03:38:43.578Z,14.25
2019-03-29T03:41:13.223Z,14.83
2019-03-29T03:43:45.743Z,14.07
2019-03-29T03:46:17.438Z,14.35
2019-03-29T03:48:46.931Z,13.80
2019-03-29T03:51:16.428Z,16.37
2019-03-29T03:53:45.576Z,14.65
2019-03-29T03:56:15.672Z,14.35
2019-03-29T03:58:45.198Z,14.15
2019-03-29T04:01:14.312Z,15.03
2019-03-29T04:03:43.433Z,15.43
2019-03-29T04:06:14.692Z,16.52
2019-03-29T04:08:43.804Z,15.32
2019-03-29T04:11:12.916Z,14.87
2019-03-29T04:13:42.360Z,15.90
2019-03-29T04:16:13.930Z,15.43
2019-03-29T04:18:45.824Z,15.50
2019-03-29T04:21:18.397Z,14.93
2019-03-29T04:23:47.499Z,15.65
2019-03-29T04:26:16.646Z,16.87
2019-03-29T04:28:56.994Z,14.70
2019-03-29T04:31:16.936Z,15.05
2019-03-29T04:33:46.056Z,16.32
2019-03-29T04:36:15.177Z,14.10
2019-03-29T04:38:44.315Z,16.52
2019-03-29T04:41:13.482Z,15.98
2019-03-29T04:43:42.598Z,16.42
2019-03-29T04:46:16.241Z,16.27
2019-03-29T04:51:13.712Z,17.32
2019-03-29T04:53:42.818Z,16.30
2019-03-29T04:56:14.473Z,17.05
2019-03-29T04:58:44.015Z,17.27
2019-03-29T05:01:13.186Z,16.65
2019-03-29T05:03:44.472Z,16.35
2019-03-29T05:06:13.596Z,17.52
2019-03-29T05:08:44.348Z,17.12
2019-03-29T05:11:15.783Z,18.37
2019-03-29T05:13:45.277Z,25.32
2019-03-29T05:16:15.965Z,26.35
2019-03-29T05:18:45.085Z,20.00
2019-03-29T05:21:14.196Z,19.73
2019-03-29T05:23:43.292Z,19.73
2019-03-29T05:26:15.508Z,17.77
2019-03-29T05:28:44.620Z,18.80
2019-03-29T05:31:13.761Z,17.70
2019-03-29T05:33:43.287Z,17.55
2019-03-29T05:36:13.163Z,17.62
2019-03-29T05:38:42.253Z,18.40
2019-03-29T05:41:11.446Z,18.95
2019-03-29T05:43:40.559Z,19.45
2019-03-29T05:46:10.000Z,19.60
2019-03-29T05:48:39.727Z,19.98
2019-03-29T05:51:08.871Z,16.55
2019-03-29T05:53:37.968Z,15.95
2019-03-29T05:56:07.402Z,16.05
2019-03-29T05:58:36.811Z,15.80
2019-03-29T06:01:06.225Z,16.57
2019-03-29T06:03:35.335Z,14.85
2019-03-29T06:06:04.802Z,15.10
2019-03-29T06:08:33.923Z,15.95
2019-03-29T06:11:03.054Z,15.28
2019-03-29T06:13:32.907Z,15.68
2019-03-29T06:16:06.027Z,15.60
2019-03-29T06:18:34.281Z,14.38
2019-03-29T06:21:03.709Z,15.20
2019-03-29T06:23:32.808Z,15.05
2019-03-29T06:26:02.286Z,15.13
2019-03-29T06:28:31.432Z,16.70
2019-03-29T06:31:00.573Z,17.60
2019-03-29T06:33:30.426Z,15.90
2019-03-29T06:36:03.000Z,15.48
2019-03-29T06:38:32.103Z,13.45
2019-03-29T06:41:03.178Z,14.68
2019-03-29T06:43:32.094Z,13.30
2019-03-29T06:46:01.208Z,15.13
2019-03-29T06:48:33.266Z,14.07
2019-03-29T06:51:03.083Z,15.45
2019-03-29T06:53:32.564Z,14.20
2019-03-29T06:56:01.993Z,14.63
2019-03-29T06:58:31.147Z,14.53
2019-03-29T07:01:02.737Z,13.72
2019-03-29T07:03:32.330Z,14.47
2019-03-29T07:06:01.867Z,14.33
2019-03-29T07:08:31.701Z,14.13
2019-03-29T07:11:01.532Z,14.68
2019-03-29T07:13:31.358Z,13.25
2019-03-29T07:16:00.811Z,13.85
2019-03-29T07:18:32.745Z,15.60
2019-03-29T07:21:01.867Z,15.18
2019-03-29T07:23:31.347Z,15.78
2019-03-29T07:26:00.801Z,15.28
2019-03-29T07:28:29.884Z,14.63
2019-03-29T07:30:59.023Z,15.30
2019-03-29T07:33:30.499Z,15.78
2019-03-29T07:35:58.916Z,15.55
2019-03-29T07:38:31.000Z,15.63
2019-03-29T07:41:00.563Z,17.50
2019-03-29T07:43:30.806Z,16.95
2019-03-29T07:45:59.891Z,16.95
2019-03-29T07:48:29.705Z,16.30
2019-03-29T07:50:59.513Z,16.93
2019-03-29T07:53:29.289Z,16.32
2019-03-29T07:55:58.415Z,15.93
2019-03-29T07:58:28.288Z,15.85
2019-03-29T08:00:57.397Z,16.80
2019-03-29T08:03:27.249Z,15.98
2019-03-29T08:05:56.341Z,16.48
2019-03-29T08:08:32.084Z,17.60
2019-03-29T08:10:56.717Z,18.05
2019-03-29T08:13:26.514Z,18.75
2019-03-29T08:15:56.014Z,18.67
2019-03-29T08:18:27.081Z,19.10
2019-03-29T08:20:56.197Z,19.57
2019-03-29T08:23:28.607Z,20.00
2019-03-29T08:25:56.211Z,21.05
2019-03-29T08:28:25.638Z,18.35
2019-03-29T08:30:55.070Z,19.85
2019-03-29T08:33:24.529Z,22.00
2019-03-29T08:35:53.975Z,20.97
2019-03-29T08:38:23.305Z,18.52
2019-03-29T08:40:53.054Z,19.23
2019-03-29T08:43:23.220Z,20.40
2019-03-29T08:45:52.676Z,18.82
2019-03-29T08:48:21.882Z,19.75
2019-03-29T08:50:53.808Z,20.32
2019-03-29T08:53:22.960Z,21.07
2019-03-29T08:55:55.263Z,20.43
2019-03-29T08:58:24.400Z,21.48
2019-03-29T09:00:53.556Z,19.60
2019-03-29T09:03:22.941Z,19.42
2019-03-29T09:05:52.067Z,18.98
2019-03-29T09:08:21.285Z,17.62
2019-03-29T09:10:57.326Z,19.07
2019-03-29T09:13:26.545Z,16.80
2019-03-29T09:15:55.763Z,16.20
2019-03-29T09:18:26.095Z,16.93
2019-03-29T09:20:55.607Z,14.78
2019-03-29T09:23:25.160Z,14.75
2019-03-29T09:25:57.644Z,15.48
2019-03-29T09:28:26.871Z,15.68
2019-03-29T09:30:56.825Z,14.50
2019-03-29T09:33:26.230Z,15.53
2019-03-29T09:35:55.339Z,13.38
2019-03-29T09:38:27.917Z,13.75
2019-03-29T09:40:59.095Z,14.10
2019-03-29T09:43:30.584Z,14.25
2019-03-29T09:46:03.080Z,13.40
2019-03-29T09:48:30.605Z,13.38
2019-03-29T09:50:59.705Z,12.95
2019-03-29T09:53:28.869Z,13.55
2019-03-29T09:55:58.057Z,13.78
2019-03-29T09:58:27.218Z,12.90
2019-03-29T10:00:56.662Z,14.55
2019-03-29T10:03:25.817Z,13.68
2019-03-29T10:05:54.953Z,13.50
2019-03-29T10:08:24.442Z,13.65
2019-03-29T10:10:53.570Z,13.18
2019-03-29T10:13:24.019Z,12.98
2019-03-29T10:15:53.489Z,14.28
2019-03-29T10:18:25.554Z,13.95
2019-03-29T10:20:55.103Z,13.45
2019-03-29T10:23:24.249Z,13.55
2019-03-29T10:25:53.810Z,13.50
2019-03-29T10:28:23.270Z,13.83
2019-03-29T10:30:52.378Z,14.07
2019-03-29T10:33:22.282Z,14.58
2019-03-29T10:35:52.956Z,14.03
2019-03-29T10:38:22.760Z,14.10
2019-03-29T10:40:55.290Z,13.90
2019-03-29T10:43:24.445Z,12.95
2019-03-29T10:45:54.314Z,13.40
2019-03-29T10:48:24.199Z,12.78
2019-03-29T10:50:53.355Z,12.73
2019-03-29T10:53:28.744Z,13.25
2019-03-29T10:55:57.045Z,12.23
2019-03-29T10:58:26.212Z,12.37
2019-03-29T11:00:55.609Z,11.93
2019-03-29T11:03:28.437Z,12.00
2019-03-29T11:05:56.019Z,11.78
2019-03-29T11:08:25.580Z,13.13
2019-03-29T11:10:55.473Z,11.85
2019-03-29T11:13:24.639Z,12.90
2019-03-29T11:15:57.342Z,11.50
2019-03-29T11:18:28.826Z,8.75
2019-03-29T11:20:58.422Z,11.68
2019-03-29T11:23:27.635Z,11.30
2019-03-29T11:25:58.767Z,11.38
2019-03-29T11:28:30.367Z,11.40
2019-03-29T11:31:00.471Z,10.40
2019-03-29T11:33:29.615Z,10.58
2019-03-29T11:35:58.862Z,11.12
2019-03-29T11:38:28.088Z,11.43
2019-03-29T11:40:57.930Z,10.98
2019-03-29T11:43:27.624Z,11.93
2019-03-29T11:45:56.794Z,10.78
2019-03-29T11:48:29.663Z,11.00
2019-03-29T11:50:59.251Z,10.85
2019-03-29T11:53:28.428Z,10.32
2019-03-29T11:55:58.301Z,10.88
2019-03-29T11:58:29.613Z,11.78
2019-03-29T12:00:58.733Z,10.28
2019-03-29T12:03:28.542Z,11.60
2019-03-29T12:05:57.856Z,10.15
2019-03-29T12:08:26.962Z,9.88
2019-03-29T12:10:56.186Z,10.88
2019-03-29T12:13:25.305Z,11.83
2019-03-29T12:15:54.632Z,13.60
2019-03-29T12:18:23.719Z,10.78
2019-03-29T12:20:54.455Z,9.33
2019-03-29T12:23:23.755Z,9.85
2019-03-29T12:25:53.289Z,9.65
2019-03-29T12:28:24.433Z,9.28
2019-03-29T12:30:53.967Z,9.58
2019-03-29T12:33:23.175Z,10.23
2019-03-29T12:35:52.488Z,9.85
2019-03-29T12:38:21.683Z,10.30
2019-03-29T12:40:50.859Z,15.53
2019-03-29T12:43:19.997Z,15.05
2019-03-29T12:45:49.158Z,8.73
2019-03-29T12:48:24.687Z,9.88
2019-03-29T12:50:54.160Z,10.78
2019-03-29T12:53:23.375Z,10.90
2019-03-29T12:55:52.609Z,13.95
2019-03-29T12:58:22.844Z,7.12
2019-03-29T13:00:52.245Z,5.70
2019-03-29T13:03:21.453Z,5.83
2019-03-29T13:05:51.011Z,8.15
2019-03-29T13:08:22.844Z,7.90
2019-03-29T13:10:52.811Z,6.85
2019-03-29T13:13:21.955Z,6.67
2019-03-29T13:15:51.374Z,8.13
2019-03-29T13:18:21.105Z,7.65
2019-03-29T13:20:50.258Z,6.72
2019-03-29T13:23:19.455Z,6.65
2019-03-29T13:25:49.866Z,7.62
2019-03-29T13:28:19.061Z,8.18
2019-03-29T13:30:48.773Z,8.20
2019-03-29T13:33:20.543Z,7.30
2019-03-29T13:35:48.778Z,7.95
2019-03-29T13:38:20.484Z,7.42
2019-03-29T13:40:49.419Z,7.97
2019-03-29T13:43:20.880Z,7.40
2019-03-29T13:45:50.014Z,7.85
2019-03-29T13:48:19.440Z,8.50
2019-03-29T13:50:49.004Z,7.17
2019-03-29T13:53:18.529Z,7.65
2019-03-29T13:55:48.000Z,7.60
2019-03-29T13:58:36.354Z,6.78
2019-03-29T14:01:05.816Z,6.85
2019-03-29T14:03:35.654Z,8.10
2019-03-29T14:06:05.803Z,6.85
2019-03-29T14:08:34.899Z,7.00
2019-03-29T14:11:04.411Z,7.08
2019-03-29T14:13:33.835Z,6.58
2019-03-29T14:16:02.961Z,7.05
2019-03-29T14:18:32.101Z,7.25
2019-03-29T14:21:01.280Z,7.60
2019-03-29T14:23:30.733Z,7.08
2019-03-29T14:25:59.847Z,6.97
2019-03-29T14:28:30.043Z,6.20
2019-03-29T14:30:59.172Z,6.70
2019-03-29T14:33:28.254Z,5.80
2019-03-29T14:35:57.403Z,6.20
2019-03-29T14:38:26.517Z,5.72
2019-03-29T14:40:55.642Z,6.00
2019-03-29T14:43:24.753Z,6.70
2019-03-29T14:45:53.894Z,6.62
2019-03-29T14:48:22.998Z,6.80
2019-03-29T14:50:52.322Z,6.90
2019-03-29T14:53:21.441Z,6.72
2019-03-29T14:55:50.577Z,6.95
2019-03-29T14:58:19.782Z,6.03
2019-03-29T15:00:50.717Z,8.25
2019-03-29T15:03:20.540Z,7.33
2019-03-29T15:05:54.939Z,6.03
2019-03-29T15:08:25.833Z,5.33
2019-03-29T15:10:54.925Z,5.20
2019-03-29T15:13:24.024Z,5.72
2019-03-29T15:15:53.980Z,5.47
2019-03-29T15:18:24.205Z,5.20
2019-03-29T15:20:54.306Z,4.75
2019-03-29T15:23:23.854Z,6.40
2019-03-29T15:25:52.980Z,6.12
2019-03-29T15:28:22.475Z,6.35
2019-03-29T15:30:52.541Z,6.60
2019-03-29T15:33:25.471Z,6.92
2019-03-29T15:35:56.956Z,6.40
2019-03-29T15:38:26.071Z,7.85
2019-03-29T15:40:58.845Z,6.78
2019-03-29T15:43:27.982Z,6.62
2019-03-29T15:45:57.091Z,6.17
2019-03-29T15:48:26.840Z,6.37
2019-03-29T15:50:55.930Z,6.65
2019-03-29T15:53:26.791Z,6.85
2019-03-29T15:55:55.967Z,7.35
2019-03-29T15:58:29.035Z,11.08
2019-03-29T16:00:58.094Z,8.03
2019-03-29T16:03:27.216Z,8.05
2019-03-29T16:05:56.959Z,6.83
2019-03-29T16:08:26.083Z,8.08
2019-03-29T16:10:55.206Z,8.15
2019-03-29T16:13:24.754Z,7.55
2019-03-29T16:15:54.581Z,6.58
2019-03-29T16:18:24.014Z,6.67
2019-03-29T16:20:53.873Z,7.53
2019-03-29T16:23:23.030Z,7.92
2019-03-29T16:25:52.727Z,7.50
2019-03-29T16:28:21.902Z,8.20
2019-03-29T16:30:51.320Z,7.37
2019-03-29T16:33:20.425Z,8.10
2019-03-29T16:35:52.606Z,9.35
2019-03-29T16:38:22.020Z,7.67
2019-03-29T16:40:51.156Z,6.70
2019-03-29T16:43:21.269Z,7.42
2019-03-29T16:45:53.485Z,8.00
2019-03-29T16:48:23.036Z,7.62
2019-03-29T16:50:52.137Z,8.80
2019-03-29T16:53:22.728Z,8.30
2019-03-29T16:55:51.892Z,9.48
2019-03-29T16:58:21.387Z,9.28
2019-03-29T17:00:50.849Z,10.38
2019-03-29T17:03:20.001Z,10.78
2019-03-29T17:05:49.462Z,9.03
2019-03-29T17:08:18.620Z,14.50
2019-03-29T17:10:50.891Z,10.65
2019-03-29T17:13:20.433Z,9.53
2019-03-29T17:16:01.103Z,8.08
2019-03-29T17:18:29.251Z,8.35
2019-03-29T17:20:52.021Z,9.30
2019-03-29T17:23:21.875Z,9.68
2019-03-29T17:25:51.384Z,9.78
2019-03-29T17:28:22.505Z,13.03
2019-03-29T17:30:55.311Z,11.85
2019-03-29T17:33:24.443Z,11.60
2019-03-29T17:35:53.561Z,12.50
2019-03-29T17:38:23.447Z,12.98
2019-03-29T17:40:52.682Z,11.40
2019-03-29T17:43:22.538Z,12.07
2019-03-29T17:45:51.764Z,11.40
2019-03-29T17:48:21.092Z,11.95
2019-03-29T17:50:50.217Z,11.40
2019-03-29T17:53:19.410Z,11.45
2019-03-29T17:55:48.616Z,11.30
2019-03-29T17:58:17.764Z,11.15
2019-03-29T18:00:46.899Z,12.00
2019-03-29T18:03:16.068Z,11.88
2019-03-29T18:05:48.466Z,11.95
2019-03-29T18:08:17.583Z,12.65
2019-03-29T18:10:49.558Z,12.33
2019-03-29T18:13:18.640Z,11.60
2019-03-29T18:15:47.901Z,13.85
2019-03-29T18:18:17.057Z,13.10
2019-03-29T18:20:48.132Z,11.73
2019-03-29T18:23:17.292Z,12.53
2019-03-29T18:25:46.530Z,12.93
2019-03-29T18:28:15.736Z,12.68
2019-03-29T18:30:48.088Z,13.65
2019-03-29T18:33:17.257Z,11.95
2019-03-29T18:35:46.425Z,12.20
2019-03-29T18:38:15.556Z,16.80
2019-03-29T18:40:48.074Z,14.90
2019-03-29T18:43:17.527Z,14.63
2019-03-29T18:45:47.101Z,18.57
2019-03-29T18:48:16.541Z,14.60
2019-03-29T18:50:48.788Z,15.85
2019-03-29T18:53:20.063Z,16.75
2019-03-29T18:55:49.207Z,19.20
2019-03-29T18:58:18.409Z,15.98
2019-03-29T19:00:51.039Z,13.10
2019-03-29T19:03:22.703Z,13.78
2019-03-29T19:05:51.864Z,16.25
2019-03-29T19:08:21.075Z,12.63
2019-03-29T19:10:51.810Z,12.58
2019-03-29T19:13:21.049Z,12.47
2019-03-29T19:15:50.192Z,12.93
2019-03-29T19:18:20.025Z,13.62
2019-03-29T19:20:49.452Z,13.80
2019-03-29T19:23:18.565Z,13.58
2019-03-29T19:25:47.733Z,14.00
2019-03-29T19:28:17.062Z,14.00
2019-03-29T19:30:46.179Z,14.28
2019-03-29T19:33:15.318Z,14.10
2019-03-29T19:35:44.502Z,14.47
2019-03-29T19:38:13.607Z,13.75
2019-03-29T19:40:42.728Z,13.35
2019-03-29T19:43:11.825Z,13.18
2019-03-29T19:45:41.000Z,13.72
2019-03-29T19:48:10.099Z,14.83
2019-03-29T19:50:42.604Z,14.35
2019-03-29T19:53:11.721Z,13.48
2019-03-29T19:55:41.266Z,13.32
2019-03-29T19:58:11.671Z,13.18
2019-03-29T20:00:42.501Z,14.07
2019-03-29T20:03:12.132Z,15.63
2019-03-29T20:05:41.216Z,14.23
2019-03-29T20:08:12.582Z,14.15
2019-03-29T20:10:41.844Z,14.83
2019-03-29T20:13:10.972Z,14.73
2019-03-29T20:15:40.107Z,15.95
2019-03-29T20:18:09.235Z,18.40
2019-03-29T20:20:38.740Z,13.72
2019-03-29T20:23:07.896Z,13.43
2019-03-29T20:25:37.012Z,14.23
2019-03-29T20:28:06.176Z,12.80
2019-03-29T20:30:35.299Z,14.33
2019-03-29T20:33:04.437Z,14.00
2019-03-29T20:35:33.631Z,13.78
2019-03-29T20:38:02.756Z,13.05
2019-03-29T20:40:32.605Z,13.55
2019-03-29T20:43:01.737Z,13.28
2019-03-29T20:45:30.857Z,13.10
2019-03-29T20:48:02.486Z,14.80
2019-03-29T20:50:31.602Z,13.30
2019-03-29T20:53:01.225Z,15.28
2019-03-29T20:55:30.357Z,16.12
2019-03-29T20:57:59.476Z,17.50
2019-03-29T21:00:30.592Z,17.02
2019-03-29T21:02:59.699Z,16.95
2019-03-29T21:05:28.882Z,18.70
2019-03-29T21:08:01.093Z,17.80
2019-03-29T21:10:30.187Z,17.82
2019-03-29T21:12:59.329Z,17.37
2019-03-29T21:15:28.463Z,19.35
2019-03-29T21:17:58.116Z,17.05
2019-03-29T21:20:27.311Z,18.45
2019-03-29T21:22:56.424Z,24.35
2019-03-29T21:25:27.917Z,17.15
2019-03-29T21:27:57.051Z,16.07
2019-03-29T21:30:26.515Z,15.53
2019-03-29T21:32:55.638Z,13.78
2019-03-29T21:35:24.811Z,14.10
2019-03-29T21:37:53.928Z,13.68
2019-03-29T21:40:23.014Z,14.65
2019-03-29T21:42:52.299Z,14.15
2019-03-29T21:45:28.654Z,14.28
2019-03-29T21:48:04.117Z,15.48
2019-03-29T21:50:29.082Z,13.65
2019-03-29T21:52:58.207Z,14.10
2019-03-29T21:55:27.300Z,13.00
2019-03-29T21:57:56.445Z,14.43
2019-03-29T22:00:25.581Z,15.40
2019-03-29T22:02:55.096Z,16.32
2019-03-29T22:05:24.523Z,25.60
2019-03-29T22:07:53.611Z,16.23
2019-03-29T22:10:22.702Z,17.25
2019-03-29T22:12:51.799Z,18.27
2019-03-29T22:15:20.886Z,16.55
2019-03-29T22:17:52.776Z,15.43
2019-03-29T22:20:21.870Z,17.30
2019-03-29T22:22:51.009Z,15.68
2019-03-29T22:25:20.092Z,15.60
2019-03-29T22:27:49.231Z,16.93
2019-03-29T22:30:18.482Z,16.97
2019-03-29T22:32:47.556Z,17.50
2019-03-29T22:35:16.669Z,20.50
2019-03-29T22:37:45.814Z,19.48
2019-03-29T22:40:14.965Z,19.37
2019-03-29T22:42:44.127Z,14.63
2019-03-29T22:45:13.388Z,14.90
2019-03-29T22:47:43.563Z,15.23
2019-03-29T22:50:12.679Z,14.53
2019-03-29T22:52:41.791Z,15.98
2019-03-29T22:55:10.866Z,15.78
2019-03-29T22:57:40.026Z,15.72
2019-03-29T23:00:13.162Z,18.05
2019-03-29T23:02:42.258Z,15.40
2019-03-29T23:05:11.373Z,16.55
2019-03-29T23:07:40.779Z,14.95
2019-03-29T23:10:09.929Z,16.75
2019-03-29T23:12:39.058Z,15.13
2019-03-29T23:15:08.152Z,14.33
2019-03-29T23:17:37.302Z,15.03
2019-03-29T23:20:06.430Z,17.40
2019-03-29T23:22:35.530Z,16.37
2019-03-29T23:25:04.743Z,14.58
2019-03-29T23:27:33.841Z,15.32
2019-03-29T23:30:02.976Z,14.55
2019-03-29T23:32:33.989Z,14.53
2019-03-29T23:35:03.431Z,12.90
2019-03-29T23:37:36.018Z,12.58
2019-03-29T23:40:05.602Z,13.93
2019-03-29T23:42:34.749Z,14.43
2019-03-29T23:45:04.332Z,15.93
2019-03-29T23:47:33.453Z,13.83
2019-03-29T23:50:02.920Z,13.95
2019-03-29T23:52:32.345Z,14.65
2019-03-29T23:55:01.488Z,13.60
2019-03-29T23:57:32.599Z,15.28
